Data for 10/23/2005

Time Sea-Level Adjusted Pressure Absolute Pressure Temperature Relative Humidity Dew Point   
(mb) (inHg) (mb) (inHg) (C) (F) (%) (C) (F)
00:05 1020 30.12 849 25.07 5 40.9 77 1.3 34.3
00:10 1020 30.12 849 25.07 5 41 76 1.2 34.1
00:15 1020 30.12 849 25.07 5.2 41.3 75 1.2 34.1
00:20 1020 30.12 849 25.07 5.2 41.4 75 1.2 34.1
00:25 1020 30.12 849 25.07 5.2 41.4 75 1.2 34.1
00:30 1020 30.12 849 25.07 5.2 41.3 75 1.1 34.1
00:35 1020 30.12 849 25.07 5.2 41.4 74 1 33.9
00:40 1020 30.12 849 25.07 5.2 41.3 75 1.1 34
00:45 1020 30.12 849 25.07 5.1 41.2 75 1.1 34
00:50 1020 30.12 849 25.07 4.9 40.8 76 1 33.9
00:55 1020 30.12 849 25.07 4.8 40.6 76 1 33.7
01:00 1020 30.12 849 25.07 4.6 40.3 77 1 33.8
01:05 1020 30.12 849 25.07 4.5 40 77 0.8 33.5
01:10 1020 30.12 849 25.07 4.5 40 77 0.8 33.5
01:15 1020 30.12 849 25.07 4.5 40.2 77 0.8 33.5
01:20 1020 30.12 849 25.07 4.5 40 77 0.8 33.5
01:25 1020 30.12 849 25.07 4.3 39.7 78 0.8 33.4
01:30 1020 30.12 849 25.07 4.3 39.7 78 0.8 33.4
01:35 1020 30.12 849 25.07 4.3 39.8 78 0.8 33.4
01:40 1020 30.12 849 25.07 4.3 39.8 78 0.8 33.4
01:45 1020 30.12 849 25.07 4.4 39.8 77 0.8 33.4
01:50 1020 30.12 849 25.07 4.3 39.8 77 0.8 33.4
01:55 1020 30.12 849 25.07 4.3 39.8 78 0.7 33.3
02:00 1020 30.12 849 25.07 4.3 39.8 77 0.7 33.3
02:05 1020 30.12 849 25.07 4.3 39.7 78 0.8 33.4
02:10 1020 30.12 849 25.07 4.4 39.9 77 0.7 33.3
02:15 1020 30.12 849 25.07 4.2 39.6 78 0.7 33.3
02:20 1020 30.12 849 25.07 4.3 39.7 77 0.6 33.2
02:25 1020 30.12 849 25.07 4.4 39.8 77 0.7 33.3
02:30 1020 30.12 849 25.07 4.3 39.7 77 0.7 33.2
02:35 1020 30.12 849 25.07 4.2 39.5 78 0.7 33.2
02:40 1020 30.12 849 25.07 4.2 39.5 78 0.6 33.2
02:45 1020 30.12 849 25.07 4.2 39.6 78 0.7 33.2
02:50 1020 30.12 849 25.07 4.3 39.8 77 0.7 33.2
02:55 1020 30.12 849 25.07 4.3 39.8 77 0.7 33.2
03:00 1020 30.12 849 25.07 4.4 40 77 0.8 33.4
03:05 1020 30.12 849 25.07 4.4 40 77 0.8 33.4
03:10 1020 30.12 849 25.07 4.5 40 77 0.8 33.4
03:15 1020 30.12 849 25.07 4.3 39.8 77 0.7 33.2
03:20 1020 30.12 849 25.07 4.3 39.7 77 0.7 33.2
03:25 1020 30.12 849 25.07 4.3 39.7 78 0.7 33.3
03:30 1020 30.12 849 25.07 4.3 39.8 77 0.7 33.3
03:35 1020 30.12 849 25.07 4.4 39.9 77 0.7 33.3
03:40 1020 30.12 849 25.07 4.4 39.8 77 0.7 33.3
03:45 1020 30.12 849 25.07 4.3 39.8 77 0.7 33.3
03:50 1020 30.12 849 25.07 4.3 39.8 77 0.7 33.2
03:55 1020 30.12 849 25.07 4.4 39.9 77 0.7 33.3
04:00 1020 30.12 849 25.07 4.5 40 77 0.7 33.3
04:05 1020 30.12 849 25.07 4.5 40.2 76 0.7 33.3
04:10 1020 30.12 849 25.07 4.6 40.3 77 0.9 33.6
04:15 1020 30.12 849 25.07 4.6 40.3 76 0.8 33.4
04:20 1020 30.12 849 25.07 4.6 40.3 76 0.8 33.4
04:25 1020 30.12 849 25.07 4.6 40.2 76 0.8 33.4
04:30 1020 30.12 849 25.07 4.5 40.1 76 0.7 33.3
04:35 1020 30.12 849 25.07 4.5 40.1 77 0.8 33.4
04:40 1020 30.12 849 25.07 4.4 40 77 0.7 33.3
04:45 1020 30.12 849 25.07 4.4 40 77 0.7 33.3
04:50 1020 30.12 849 25.07 4.4 40 76 0.6 33.2
04:55 1020 30.12 849 25.07 4.5 40.1 76 0.7 33.3
05:00 1020 30.12 849 25.07 4.7 40.4 76 0.8 33.5
05:05 1020 30.12 849 25.07 4.8 40.6 76 0.8 33.5
05:10 1020 30.12 849 25.07 4.7 40.5 75 0.8 33.4
05:15 1020 30.12 849 25.07 4.7 40.5 76 0.8 33.4
05:20 1020 30.12 849 25.07 4.7 40.4 76 0.8 33.4
05:25 1020 30.12 849 25.07 4.8 40.7 75 0.8 33.4
05:30 1020 30.12 849 25.07 5 40.9 74 0.8 33.4
05:35 1020 30.12 849 25.07 4.8 40.7 75 0.8 33.5
05:40 1020 30.12 849 25.07 4.7 40.5 75 0.8 33.4
05:45 1020 30.12 849 25.07 4.5 40.2 76 0.8 33.4
05:50 1020 30.12 849 25.07 4.5 40 76 0.6 33.1
05:55 1020 30.12 849 25.07 4.5 40.1 77 0.8 33.4
06:00 1020 30.12 849 25.07 4.4 39.9 76 0.6 33.1
06:05 1020 30.12 849 25.07 4.3 39.7 77 0.6 33
06:10 1020 30.12 849 25.07 4.4 39.8 77 0.6 33.1
06:15 1020 30.12 849 25.07 4.3 39.8 77 0.6 33.1
06:20 1020 30.12 849 25.07 4.5 40.1 76 0.7 33.3
06:25 1020 30.12 849 25.07 4.4 39.8 77 0.7 33.2
06:30 1020 30.12 849 25.07 4.5 40.1 76 0.6 33.1
06:35 1020 30.12 849 25.07 4.6 40.2 76 0.7 33.3
06:40 1020 30.12 849 25.07 4.5 40 77 0.7 33.3
06:45 1020 30.12 849 25.07 4.2 39.5 78 0.7 33.2
06:50 1020 30.12 849 25.07 4.1 39.3 78 0.6 33
06:55 1020 30.12 849 25.07 4.1 39.4 78 0.6 33.1
07:00 1020 30.12 849 25.07 4 39.2 79 0.6 33.1
07:05 1020 30.12 849 25.07 4 39.2 78 0.5 32.9
07:10 1020 30.12 849 25.07 3.8 38.8 79 0.5 32.9
07:15 1020 30.12 849 25.07 3.8 38.8 78 0.4 32.7
07:20 1020 30.12 849 25.07 3.8 38.9 78 0.4 32.7
07:25 1020 30.12 849 25.07 3.9 39 79 0.5 32.9
07:30 1020 30.12 849 25.07 3.9 39.1 78 0.4 32.8
07:35 1020 30.12 849 25.07 3.8 38.9 79 0.5 32.8
07:40 1020 30.12 849 25.07 3.8 38.8 78 0.4 32.7
07:45 1020 30.12 849 25.07 3.7 38.7 79 0.4 32.7
07:50 1020 30.12 849 25.07 3.9 39 78 0.4 32.8
07:55 1020 30.12 849 25.07 4 39.2 78 0.5 32.8
08:00 1020 30.12 849 25.07 3.9 39 79 0.5 32.9
08:05 1020 30.12 849 25.07 3.7 38.7 80 0.5 32.9
08:10 1020 30.12 849 25.07 3.7 38.6 79 0.3 32.6
08:15 1020 30.12 849 25.07 4 39.2 77 0.4 32.7
08:20 1020 30.12 849 25.07 4.2 39.6 77 0.5 32.9
08:25 1020 30.12 849 25.07 4.5 40.1 75 0.5 32.9
08:30 1020 30.12 849 25.07 4.6 40.2 74 0.4 32.7
08:35 1020 30.12 850 25.1 4.8 40.6 74 0.5 32.9
08:40 1020 30.12 850 25.1 4.9 40.8 73 0.5 32.9
08:45 1021 30.15 850 25.1 5 40.9 73 0.6 33.1
08:50 1021 30.15 850 25.1 5.1 41.2 72 0.6 33
08:55 1021 30.15 850 25.1 5.2 41.4 72 0.6 33.1
09:00 1021 30.15 850 25.1 5.4 41.8 71 0.6 33.1
09:05 1021 30.15 850 25.1 6.1 42.9 68 0.7 33.2
09:10 1021 30.15 850 25.1 6.6 43.9 67 1 33.7
09:15 1021 30.15 850 25.1 6.7 44 67 1.1 34
09:20 1021 30.15 850 25.1 6.8 44.3 67 1.1 33.9
09:25 1021 30.15 850 25.1 7.1 44.8 66 1.1 34.1
09:30 1021 30.15 850 25.1 7.3 45.2 65 1.2 34.1
09:35 1021 30.15 850 25.1 7.7 45.9 63 1.2 34.1
09:40 1021 30.15 850 25.1 8 46.4 62 1.2 34.1
09:45 1021 30.15 850 25.1 8.7 47.7 60 1.4 34.5
09:50 1021 30.15 850 25.1 9.4 48.9 58 1.7 35.1
09:55 1021 30.15 850 25.1 9.8 49.6 57 1.7 35.1
10:00 1021 30.15 850 25.1 9.9 49.8 57 1.8 35.3
10:05 1021 30.15 850 25.1 10.2 50.4 55 1.7 35.1
10:10 1021 30.15 850 25.1 10.6 51.1 54 1.7 35
10:15 1021 30.15 850 25.1 10.5 50.9 56 2 35.7
10:20 1021 30.15 850 25.1 10.6 51.1 54 1.8 35.2
10:25 1021 30.15 850 25.1 10.4 50.7 55 1.7 35.1
10:30 1021 30.15 850 25.1 10.7 51.3 54 1.8 35.2
10:35 1021 30.15 850 25.1 11.5 52.7 50 1.5 34.7
10:40 1021 30.15 850 25.1 12 53.7 49 1.7 35.1
10:45 1021 30.15 850 25.1 12.3 54.1 48 1.8 35.2
10:50 1021 30.15 850 25.1 11.6 52.8 52 2.1 35.8
10:55 1020 30.12 850 25.1 11.5 52.7 51 1.8 35.2
11:00 1020 30.12 850 25.1 11.8 53.2 52 2.2 35.9
11:05 1020 30.12 850 25.1 11.7 53.1 51 2.1 35.8
11:10 1020 30.12 850 25.1 12.1 53.8 48 1.6 34.8
11:15 1020 30.12 850 25.1 12.7 54.9 47 1.8 35.3
11:20 1020 30.12 850 25.1 13.4 56.1 45 1.7 35.1
11:25 1020 30.12 850 25.1 14.2 57.5 43 1.9 35.5
11:30 1020 30.12 850 25.1 13.9 57 46 2.4 36.3
11:35 1020 30.12 849 25.07 13.8 56.8 45 2.1 35.8
11:40 1020 30.12 849 25.07 13.9 57 45 2.2 36
11:45 1020 30.12 849 25.07 14.1 57.4 44 2.1 35.8
11:50 1020 30.12 849 25.07 14 57.2 46 2.7 36.9
11:55 1020 30.12 849 25.07 13.9 57 45 2.1 35.7
12:00 1020 30.12 849 25.07 14.5 58.1 43 2.3 36.1
12:05 1020 30.12 849 25.07 14.2 57.5 45 2.6 36.7
12:10 1020 30.12 849 25.07 14.6 58.3 43 2.4 36.3
12:15 1020 30.12 849 25.07 15.1 59.1 41 2 35.6
12:20 1020 30.12 849 25.07 14.4 57.9 44 2.4 36.3
12:25 1020 30.12 849 25.07 15 59.1 41 1.9 35.4
12:30 1020 30.12 849 25.07 15.4 59.8 41 2.3 36.2
12:35 1020 30.12 849 25.07 15.5 59.9 42 2.8 37.1
12:40 1020 30.12 849 25.07 15.7 60.3 40 2.4 36.2
12:45 1020 30.12 849 25.07 15.1 59.2 43 2.8 37.1
12:50 1020 30.12 849 25.07 15.3 59.5 42 2.5 36.4
12:55 1020 30.12 849 25.07 15.2 59.4 44 3.3 37.9
13:00 1020 30.12 849 25.07 14.8 58.6 43 2.5 36.4
13:05 1020 30.12 849 25.07 14.6 58.3 44 2.7 36.8
13:10 1020 30.12 849 25.07 15.4 59.8 42 2.7 36.8
13:15 1020 30.12 849 25.07 15.8 60.5 41 2.6 36.7
13:20 1020 30.12 849 25.07 16 60.9 40 2.4 36.4
13:25 1020 30.12 849 25.07 16.5 61.7 39 2.7 36.9
13:30 1020 30.12 849 25.07 16.7 62 38 2.5 36.4
13:35 1020 30.12 849 25.07 16.7 62.1 40 3.1 37.7
13:40 1020 30.12 849 25.07 15.7 60.2 41 2.4 36.4
13:45 1020 30.12 849 25.07 16.1 61 40 2.6 36.6
13:50 1020 30.12 849 25.07 16.9 62.3 38 2.5 36.5
13:55 1020 30.12 849 25.07 17.5 63.4 36 2.2 36
14:00 1019 30.09 849 25.07 17.1 62.8 38 2.8 37
14:05 1019 30.09 849 25.07 16.9 62.3 37 2.2 35.9
14:10 1019 30.09 849 25.07 16.8 62.2 38 2.4 36.4
14:15 1019 30.09 849 25.07 17 62.6 37 2.5 36.5
14:20 1019 30.09 849 25.07 16.6 61.9 39 2.7 36.8
14:25 1019 30.09 849 25.07 16.6 61.9 38 2.3 36.1
14:30 1019 30.09 848 25.04 16.6 61.9 40 2.9 37.3
14:35 1019 30.09 848 25.04 17.1 62.8 37 2.4 36.3
14:40 1019 30.09 848 25.04 17.1 62.7 38 2.6 36.7
14:45 1019 30.09 848 25.04 17.4 63.2 37 2.8 37
14:50 1019 30.09 848 25.04 17.4 63.2 37 2.6 36.6
14:55 1019 30.09 848 25.04 18 64.3 35 2.3 36.2
15:00 1019 30.09 848 25.04 18.1 64.5 35 2.6 36.6
15:05 1019 30.09 848 25.04 17.7 63.9 37 3.1 37.5
15:10 1019 30.09 848 25.04 18 64.3 34 2.1 35.8
15:15 1019 30.09 848 25.04 18.3 64.9 35 2.5 36.5
15:20 1019 30.09 848 25.04 18.3 64.9 35 2.6 36.6
15:25 1019 30.09 848 25.04 18.4 65.1 34 2.5 36.4
15:30 1019 30.09 848 25.04 18.6 65.5 33 2 35.6
15:35 1019 30.09 848 25.04 19.1 66.4 31 1.5 34.8
15:40 1019 30.09 848 25.04 18.6 65.5 33 2.1 35.8
15:45 1019 30.09 848 25.04 18.8 65.9 31 1.4 34.4
15:50 1019 30.09 848 25.04 19.4 67 31 1.9 35.4
15:55 1019 30.09 848 25.04 18.9 66.1 33 2.3 36.1
16:00 1019 30.09 848 25.04 19.3 66.8 32 2.4 36.2
16:05 1019 30.09 848 25.04 19.5 67 32 2.4 36.3
16:10 1019 30.09 848 25.04 19.4 66.9 33 2.7 36.9
16:15 1019 30.09 848 25.04 19 66.2 33 2.7 36.8
16:20 1019 30.09 848 25.04 18.8 65.8 33 2.1 35.8
16:25 1019 30.09 848 25.04 19.4 66.9 31 1.8 35.3
16:30 1019 30.09 848 25.04 19.4 67 33 2.7 36.9
16:35 1019 30.09 848 25.04 19.2 66.6 33 2.8 37
16:40 1019 30.09 848 25.04 18.9 66 34 2.8 37.1
16:45 1019 30.09 848 25.04 18.6 65.5 34 2.5 36.5
16:50 1019 30.09 848 25.04 18.5 65.3 35 2.7 36.9
16:55 1019 30.09 848 25.04 18.6 65.5 33 2.3 36.1
17:00 1019 30.09 848 25.04 18.8 65.8 33 2.5 36.4
17:05 1019 30.09 848 25.04 18.9 66 33 2.5 36.4
17:10 1019 30.09 848 25.04 18.7 65.6 33 2.3 36.2
17:15 1019 30.09 848 25.04 19.3 66.7 32 2.5 36.4
17:20 1019 30.09 848 25.04 19.2 66.5 33 2.6 36.7
17:25 1019 30.09 848 25.04 19 66.2 33 2.7 36.8
17:30 1019 30.09 848 25.04 18.9 66.1 33 2.5 36.4
17:35 1019 30.09 848 25.04 19.1 66.4 32 2 35.5
17:40 1019 30.09 848 25.04 19.3 66.7 31 1.9 35.3
17:45 1019 30.09 848 25.04 19.4 66.9 31 2.1 35.9
17:50 1019 30.09 848 25.04 19.4 66.9 31 2.1 35.7
17:55 1019 30.09 848 25.04 19 66.1 33 2.4 36.3
18:00 1019 30.09 848 25.04 18.7 65.7 33 2.4 36.4
18:05 1019 30.09 848 25.04 18.7 65.7 34 2.6 36.7
18:10 1019 30.09 848 25.04 18.3 64.9 35 2.6 36.6
18:15 1019 30.09 848 25.04 17.8 64.1 36 2.9 37.1
18:20 1019 30.09 848 25.04 17.3 63.2 39 3.2 37.8
18:25 1019 30.09 848 25.04 16.8 62.2 40 3.2 37.7
18:30 1019 30.09 848 25.04 16 60.9 44 4 39.3
18:35 1019 30.09 848 25.04 15.1 59.1 48 4.2 39.5
18:40 1019 30.09 848 25.04 14.1 57.3 49 3.5 38.4
18:45 1019 30.09 848 25.04 13.6 56.5 49 3.2 37.7
18:50 1019 30.09 848 25.04 13.5 56.3 50 3.4 38
18:55 1019 30.09 848 25.04 13 55.4 55 4.3 39.7
19:00 1019 30.09 848 25.04 12.8 55 52 3.2 37.7
19:05 1019 30.09 848 25.04 12.2 54 55 3.6 38.4
19:10 1019 30.09 848 25.04 11.8 53.3 56 3.4 38.1
19:15 1019 30.09 848 25.04 11.8 53.2 57 3.6 38.4
19:20 1019 30.09 848 25.04 11.3 52.4 59 3.6 38.5
19:25 1019 30.09 848 25.04 10.9 51.5 60 3.5 38.3
19:30 1019 30.09 848 25.04 11.4 52.6 54 2.4 36.3
19:35 1019 30.09 848 25.04 11.9 53.5 54 2.9 37.2
19:40 1019 30.09 848 25.04 11.7 53.1 53 2.7 36.8
19:45 1019 30.09 848 25.04 11.5 52.7 54 2.7 36.8
19:50 1019 30.09 848 25.04 11.2 52.2 54 2.4 36.3
19:55 1019 30.09 848 25.04 11.4 52.6 53 2.3 36.1
20:00 1019 30.09 848 25.04 11.3 52.3 54 2.3 36.1
20:05 1019 30.09 848 25.04 11.1 51.9 53 2 35.7
20:10 1019 30.09 848 25.04 10.8 51.4 54 2 35.6
20:15 1019 30.09 848 25.04 10.6 51 55 1.8 35.3
20:20 1019 30.09 848 25.04 10.4 50.7 54 1.6 34.8
20:25 1019 30.09 848 25.04 10.3 50.6 54 1.5 34.7
20:30 1019 30.09 848 25.04 10.5 50.9 53 1.4 34.6
20:35 1019 30.09 848 25.04 10.8 51.4 52 1.3 34.4
20:40 1019 30.09 848 25.04 10.9 51.7 52 1.5 34.6
20:45 1019 30.09 848 25.04 11 51.8 51 1.3 34.3
20:50 1019 30.09 848 25.04 11 51.8 51 1.3 34.3
20:55 1019 30.09 848 25.04 10.8 51.5 52 1.4 34.6
21:00 1019 30.09 848 25.04 10.7 51.3 52 1.4 34.6
21:05 1019 30.09 848 25.04 10.8 51.4 51 1.1 33.9
21:10 1019 30.09 848 25.04 11.1 51.9 50 1.2 34.1
21:15 1019 30.09 848 25.04 11.1 52 50 1.1 33.9
21:20 1019 30.09 848 25.04 11.5 52.7 49 1.3 34.3
21:25 1019 30.09 848 25.04 11.7 53.1 48 1.1 34
21:30 1019 30.09 848 25.04 11.6 52.9 49 1.2 34.2
21:35 1019 30.09 848 25.04 11.5 52.7 48 1 33.8
21:40 1019 30.09 848 25.04 11.2 52.2 50 1.3 34.3
21:45 1019 30.09 848 25.04 10.8 51.4 51 1 33.9
21:50 1019 30.09 848 25.04 10.6 51.1 51 1 33.8
21:55 1019 30.09 848 25.04 10.5 50.9 52 1 33.8
22:00 1019 30.09 848 25.04 10.4 50.8 51 0.9 33.6
22:05 1019 30.09 849 25.07 10.4 50.7 51 0.8 33.4
22:10 1019 30.09 849 25.07 10.6 51.1 51 0.9 33.6
22:15 1019 30.09 849 25.07 11.1 52 49 0.7 33.3
22:20 1019 30.09 849 25.07 11.3 52.3 48 0.6 33.1
22:25 1019 30.09 849 25.07 11.3 52.3 49 0.9 33.5
22:30 1019 30.09 849 25.07 11.4 52.4 48 0.8 33.4
22:35 1019 30.09 849 25.07 11.3 52.3 48 0.8 33.4
22:40 1019 30.09 849 25.07 11.1 52 49 0.8 33.4
22:45 1019 30.09 849 25.07 10.4 50.7 53 1.2 34.1
22:50 1020 30.12 849 25.07 9.8 49.6 53 0.7 33.3
22:55 1020 30.12 849 25.07 10 50.1 52 0.7 33.3
23:00 1020 30.12 849 25.07 10.2 50.4 51 0.6 33.1
23:05 1020 30.12 849 25.07 10.4 50.8 51 0.8 33.5
23:10 1020 30.12 849 25.07 10.8 51.4 50 0.7 33.2
23:15 1020 30.12 849 25.07 10.8 51.5 50 0.8 33.4
23:20 1020 30.12 849 25.07 10.2 50.4 51 0.7 33.2
23:25 1020 30.12 849 25.07 10.5 50.9 50 0.7 33.2
23:30 1020 30.12 849 25.07 10.7 51.2 50 0.6 33.1
23:35 1020 30.12 849 25.07 10.8 51.5 48 0.3 32.6
23:40 1020 30.12 849 25.07 11.1 51.9 48 0.6 33
23:45 1020 30.12 849 25.07 11.2 52.1 47 0.4 32.7
23:50 1020 30.12 849 25.07 11.1 51.9 49 0.9 33.7
23:55 1020 30.12 849 25.07 9.9 49.7 52 0.5 32.9
24:00 1020 30.12 849 25.07 10 49.9 51 0.3 32.5